Time;durP1;ratioP1;P1;durP2;ratioP2;P2;SDS_P1;SDS_P2;PMS_P1;PMS_P2;Temp;Humidity;BMP_temperature;BMP_pressure;BME280_temperature;BME280_humidity;BME280_pressure;Samples;Min_cycle;Max_cycle;Signal;HPM_P1;HPM_P2
2022/10/28 03:37:07;;;;;;;;;;;;;;;10.84;100.00;100066.56;5518662;23;19933;-86
2022/10/28 03:39:32;;;;;;;;;;;;;;;10.83;100.00;100065.69;5049590;28;19925;-85
2022/10/28 03:42:00;;;;;;;;;;;;;;;10.85;100.00;100060.31;5051783;28;19964;-88
2022/10/28 03:44:25;;;;;;;;;;;;;;;10.87;100.00;100053.19;5052443;28;19929;-85
2022/10/28 03:46:50;;;;;;;;;;;;;;;10.88;100.00;100057.53;5051939;28;19920;-86
2022/10/28 03:49:16;;;;;;;;;;;;;;;10.89;100.00;100053.97;5051600;28;20487;-87
2022/10/28 03:51:41;;;;;;;;;;;;;;;10.89;100.00;100044.22;5050702;28;19916;-86
2022/10/28 03:54:06;;;;;;;;;;;;;;;10.87;100.00;100050.53;5051824;28;19917;-85
2022/10/28 03:56:31;;;;;;;;;;;;;;;10.92;100.00;100048.56;5033961;28;19939;-86
2022/10/28 03:58:56;;;;;;;;;;;;;;;10.90;100.00;100035.34;5033288;28;19923;-87
2022/10/28 04:01:22;;;;;;;;;;;;;;;10.89;100.00;100035.41;5034052;28;19962;-87
2022/10/28 04:03:47;;;;;;;;;;;;;;;10.90;100.00;100029.19;5033824;28;20315;-87
2022/10/28 04:06:13;;;;;;;;;;;;;;;10.95;100.00;100035.19;5049489;28;19924;-87
2022/10/28 04:08:38;;;;;;;;;;;;;;;10.93;100.00;100031.72;5051734;28;19920;-86
2022/10/28 04:11:04;;;;;;;;;;;;;;;10.98;100.00;100031.56;5051850;28;19969;-86
2022/10/28 04:13:29;;;;;;;;;;;;;;;10.96;100.00;100034.25;5034032;28;20011;-86
2022/10/28 04:15:54;;;;;;;;;;;;;;;10.97;100.00;100035.97;5051798;28;19923;-86
2022/10/28 04:18:19;;;;;;;;;;;;;;;10.98;100.00;100034.19;5051654;28;20024;-86
2022/10/28 04:20:45;;;;;;;;;;;;;;;11.01;100.00;100036.69;5050415;28;19920;-87
2022/10/28 04:23:13;;;;;;;;;;;;;;;10.99;100.00;100042.09;5051368;28;19927;-88
2022/10/28 04:25:39;;;;;;;;;;;;;;;11.02;100.00;100044.59;5051530;28;19916;-87
2022/10/28 04:28:04;;;;;;;;;;;;;;;11.02;100.00;100041.94;5050613;28;19917;-91
2022/10/28 04:30:29;;;;;;;;;;;;;;;11.01;100.00;100045.53;5055063;28;20379;-86
2022/10/28 04:32:54;;;;;;;;;;;;;;;9.87;100.00;100055.09;5055501;28;19917;-87
2022/10/28 04:35:20;;;;;;;;;;;;;;;8.69;100.00;100054.63;5055272;28;19925;-86
2022/10/28 04:37:45;;;;;;;;;;;;;;;8.14;100.00;100051.81;5054259;28;20426;-88
2022/10/28 04:40:10;;;;;;;;;;;;;;;7.99;100.00;100045.19;5055384;28;19921;-92
2022/10/28 04:42:36;;;;;;;;;;;;;;;7.78;100.00;100055.41;5054537;28;19967;-89
2022/10/28 04:45:01;;;;;;;;;;;;;;;7.62;100.00;100059.38;5055535;28;19971;-92
2022/10/28 04:47:26;;;;;;;;;;;;;;;7.58;100.00;100058.59;5037432;28;19917;-91
2022/10/28 04:49:51;;;;;;;;;;;;;;;7.35;100.00;100061.81;5037051;28;19917;-86
2022/10/28 04:52:17;;;;;;;;;;;;;;;7.38;100.00;100067.00;5053771;28;19916;-91
2022/10/28 07:59:29;;;;;;;;;;;;;;;6.49;100.00;100108.59;5602299;23;19934;-85
2022/10/28 08:01:54;;;;;;;;;;;;;;;6.53;100.00;100112.91;5021611;28;19926;-86
2022/10/28 08:04:19;;;;;;;;;;;;;;;6.49;100.00;100116.47;5018614;28;19918;-87
2022/10/28 08:06:44;;;;;;;;;;;;;;;6.51;100.00;100115.56;5025769;28;20352;-87
2022/10/28 08:09:10;;;;;;;;;;;;;;;6.56;100.00;100112.84;5026245;28;19921;-87
2022/10/28 08:11:35;;;;;;;;;;;;;;;6.58;100.00;100116.28;5008953;28;19923;-86
2022/10/28 08:14:01;;;;;;;;;;;;;;;6.61;100.00;100124.13;5024381;28;19918;-85
2022/10/28 08:16:27;;;;;;;;;;;;;;;6.64;100.00;100125.84;5008058;28;19921;-87
2022/10/28 08:18:53;;;;;;;;;;;;;;;6.71;100.00;100132.69;5023235;28;19921;-86
2022/10/28 08:21:18;;;;;;;;;;;;;;;6.64;100.00;100128.47;5025632;28;20025;-86
2022/10/28 08:23:45;;;;;;;;;;;;;;;6.65;100.00;100128.44;5025401;28;19921;-86
2022/10/28 08:26:11;;;;;;;;;;;;;;;6.64;100.00;100125.84;5024459;28;19971;-87
2022/10/28 08:28:36;;;;;;;;;;;;;;;6.64;100.00;100124.06;5023572;28;20012;-86
2022/10/28 08:31:02;;;;;;;;;;;;;;;6.64;100.00;100129.34;5024098;28;19921;-86
2022/10/28 08:33:30;;;;;;;;;;;;;;;6.63;100.00;100122.31;5025560;28;20406;-87
2022/10/28 08:35:55;;;;;;;;;;;;;;;6.66;100.00;100126.66;5025974;28;19943;-86
2022/10/28 08:38:20;;;;;;;;;;;;;;;6.69;100.00;100134.50;5020723;28;20280;-86
2022/10/28 08:41:06;;;;;;;;;;;;;;;6.65;100.00;100138.97;4997879;28;20023;-86
2022/10/28 08:43:43;;;;;;;;;;;;;;;6.63;100.00;100129.38;5014267;28;20281;-87
2022/10/28 08:46:31;;;;;;;;;;;;;;;6.66;100.00;100127.53;5014196;28;19925;-87
2022/10/28 08:48:56;;;;;;;;;;;;;;;6.71;100.00;100132.69;5014777;28;20368;-87
2022/10/28 08:51:24;;;;;;;;;;;;;;;6.70;100.00;100130.94;5015280;28;19924;-86
2022/10/28 08:54:03;;;;;;;;;;;;;;;6.70;100.00;100123.94;5014934;28;19967;-87
2022/10/28 08:56:33;;;;;;;;;;;;;;;6.67;100.00;100118.75;5014896;28;19944;-86
2022/10/28 08:59:00;;;;;;;;;;;;;;;6.70;100.00;100118.69;5013474;28;19921;-86
2022/10/28 09:01:33;;;;;;;;;;;;;;;6.70;100.00;100120.41;5013968;28;20407;-86
2022/10/28 09:04:01;;;;;;;;;;;;;;;6.71;100.00;100115.13;4995931;28;19921;-86
2022/10/28 09:06:26;;;;;;;;;;;;;;;6.73;100.00;100115.97;4994760;28;19922;-87
2022/10/28 09:08:52;;;;;;;;;;;;;;;6.72;100.00;100113.38;5013344;28;20377;-87
2022/10/28 09:11:21;;;;;;;;;;;;;;;6.69;100.00;100116.94;5014757;28;19921;-85
2022/10/28 09:13:46;;;;;;;;;;;;;;;6.70;100.00;100110.78;4993395;28;19925;-86
2022/10/28 09:16:17;;;;;;;;;;;;;;;6.70;100.00;100110.78;5012638;28;19921;-87
2022/10/28 09:18:45;;;;;;;;;;;;;;;6.75;100.00;100117.69;5014584;28;20030;-88
2022/10/28 09:21:21;;;;;;;;;;;;;;;6.67;100.00;100117.84;5014768;28;19918;-88
2022/10/28 09:23:51;;;;;;;;;;;;;;;6.68;100.00;100112.56;5013602;28;20015;-87
2022/10/28 09:26:19;;;;;;;;;;;;;;;6.66;100.00;100113.50;5013650;28;19956;-87
2022/10/28 09:28:53;;;;;;;;;;;;;;;6.73;100.00;100108.06;5013278;28;19918;-88
2022/10/28 09:31:18;;;;;;;;;;;;;;;6.71;100.00;100116.91;4996390;28;20277;-87
2022/10/28 09:33:53;;;;;;;;;;;;;;;6.76;100.00;100124.69;5014484;28;19926;-87
2022/10/28 09:36:31;;;;;;;;;;;;;;;6.71;100.00;100123.03;5012155;28;19928;-87
2022/10/28 09:38:59;;;;;;;;;;;;;;;6.76;100.00;100135.25;4996788;28;19921;-87
2022/10/28 09:41:26;;;;;;;;;;;;;;;6.75;100.00;100136.13;4996644;28;19924;-87
2022/10/28 09:44:00;;;;;;;;;;;;;;;6.70;100.00;100136.22;5013037;28;20357;-86
2022/10/28 09:46:27;;;;;;;;;;;;;;;6.72;100.00;100130.03;4996510;28;19932;-89
2022/10/28 09:48:55;;;;;;;;;;;;;;;6.81;100.00;100138.63;4996566;28;20338;-91
2022/10/28 09:51:33;;;;;;;;;;;;;;;6.81;100.00;100139.53;4996281;28;20372;-89
2022/10/28 09:53:59;;;;;;;;;;;;;;;6.78;100.00;100143.97;4995582;28;19922;-87
2022/10/28 09:56:26;;;;;;;;;;;;;;;6.85;100.00;100146.44;4996586;28;19924;-87
2022/10/28 09:58:52;;;;;;;;;;;;;;;6.88;100.00;100135.84;5012771;28;20438;-87
2022/10/28 10:01:18;;;;;;;;;;;;;;;6.88;100.00;100140.25;5013819;28;20392;-86
2022/10/28 10:03:46;;;;;;;;;;;;;;;6.93;100.00;100143.63;4980152;28;19994;-87
2022/10/28 10:06:14;;;;;;;;;;;;;;;6.86;100.00;100142.91;4995879;28;19929;-86
2022/10/28 10:08:40;;;;;;;;;;;;;;;6.89;100.00;100147.22;5013032;28;20311;-85
2022/10/28 10:11:12;;;;;;;;;;;;;;;6.93;100.00;100141.00;5013712;28;19922;-88
2022/10/28 10:13:40;;;;;;;;;;;;;;;6.93;100.00;100143.63;4994866;28;19917;-86
2022/10/28 10:19:39;;;;;;;;;;;;;;;6.95;100.00;100128.66;5000993;28;20324;-86
2022/10/28 10:22:05;;;;;;;;;;;;;;;6.92;100.00;100131.34;5012009;28;20318;-87
2022/10/28 10:24:34;;;;;;;;;;;;;;;7.01;100.00;100139.06;4996072;28;19921;-86
2022/10/28 10:27:01;;;;;;;;;;;;;;;6.97;100.00;100139.16;5012901;28;20063;-87
2022/10/28 10:29:27;;;;;;;;;;;;;;;6.86;100.00;100142.03;5012008;28;20008;-86
2022/10/28 10:32:14;;;;;;;;;;;;;;;6.89;100.00;100136.69;5013350;28;20056;-86
2022/10/28 10:34:45;;;;;;;;;;;;;;;6.90;100.00;100133.16;5013388;28;19914;-86
2022/10/28 10:40:21;;;;;;;;;;;;;;;6.93;100.00;100125.19;5001457;28;19920;-86
2022/10/28 10:42:47;;;;;;;;;;;;;;;6.93;100.00;100122.56;5013025;28;19918;-87
2022/10/28 10:45:18;;;;;;;;;;;;;;;6.94;100.00;100113.78;5011272;28;20372;-86
2022/10/28 10:47:44;;;;;;;;;;;;;;;6.92;100.00;100105.00;5012474;28;19925;-85
2022/10/28 10:50:28;;;;;;;;;;;;;;;6.95;100.00;100114.63;5012878;28;19921;-85
2022/10/28 10:53:19;;;;;;;;;;;;;;;6.91;100.00;100109.44;5012951;28;20011;-88
2022/10/28 10:55:48;;;;;;;;;;;;;;;6.89;100.00;100105.97;5012020;28;20343;-86
2022/10/28 10:58:15;;;;;;;;;;;;;;;6.92;100.00;100107.66;5013108;28;19965;-87
2022/10/28 11:00:48;;;;;;;;;;;;;;;6.85;100.00;100117.47;4994162;28;19926;-86
2022/10/28 11:03:35;;;;;;;;;;;;;;;6.88;100.00;100116.53;5012706;28;19971;-85
2022/10/28 11:07:05;;;;;;;;;;;;;;;6.81;100.00;100120.19;5012623;28;19918;-85
2022/10/28 11:09:08;;;;;;;;;;;;;;;6.87;100.00;100118.28;4997395;28;19924;-86
2022/10/28 11:11:38;;;;;;;;;;;;;;;6.90;100.00;100122.63;5011827;28;19917;-86
2022/10/28 11:14:03;;;;;;;;;;;;;;;6.91;100.00;100113.84;5011332;28;19924;-86
2022/10/28 11:16:28;;;;;;;;;;;;;;;6.94;100.00;100099.72;5012834;28;20015;-88
2022/10/28 11:18:57;;;;;;;;;;;;;;;6.89;100.00;100110.34;5012571;28;19917;-86
2022/10/28 11:21:41;;;;;;;;;;;;;;;6.86;100.00;100105.16;4994859;28;19920;-84
2022/10/28 11:24:22;;;;;;;;;;;;;;;6.81;100.00;100101.75;4994822;28;19925;-87
2022/10/28 11:27:02;;;;;;;;;;;;;;;6.94;100.00;100099.72;5011876;28;19928;-86
2022/10/28 11:29:27;;;;;;;;;;;;;;;6.88;100.00;100096.31;5010650;28;20392;-86
2022/10/28 11:31:59;;;;;;;;;;;;;;;6.84;100.00;100086.75;5012399;28;19918;-86
2022/10/28 11:34:24;;;;;;;;;;;;;;;6.91;100.00;100092.75;5012455;28;20320;-86
2022/10/28 11:36:59;;;;;;;;;;;;;;;6.91;100.00;100079.59;4994714;28;19918;-87
2022/10/28 11:39:35;;;;;;;;;;;;;;;6.92;100.00;100076.03;5012400;28;19924;-87
2022/10/28 11:45:24;;;;;;;;;;;;;;;6.94;100.00;100079.53;4976692;28;19921;-85
2022/10/28 11:47:49;;;;;;;;;;;;;;;6.91;100.00;100087.50;5011758;28;19921;-85
2022/10/28 11:50:33;;;;;;;;;;;;;;;6.89;100.00;100084.91;5012167;28;20326;-84
2022/10/28 11:53:01;;;;;;;;;;;;;;;6.85;100.00;100083.22;5012255;28;19918;-86
2022/10/28 11:55:32;;;;;;;;;;;;;;;6.95;100.00;100078.59;5012197;28;19925;-85
2022/10/28 11:58:03;;;;;;;;;;;;;;;7.00;100.00;100074.06;5011334;28;20467;-85
2022/10/28 12:00:47;;;;;;;;;;;;;;;6.88;100.00;100061.22;5010025;28;20381;-85
2022/10/28 12:03:12;;;;;;;;;;;;;;;6.90;100.00;100067.31;5011811;28;20398;-87
2022/10/28 12:05:41;;;;;;;;;;;;;;;6.92;100.00;100062.88;5011150;28;19918;-87
2022/10/28 12:08:21;;;;;;;;;;;;;;;7.85;100.00;100053.50;4993967;28;19914;-86
2022/10/28 12:10:58;;;;;;;;;;;;;;;7.40;100.00;100059.94;5011870;28;19918;-85
2022/10/28 12:13:33;;;;;;;;;;;;;;;7.30;100.00;100061.06;5010428;28;19921;-87
2022/10/28 12:16:04;;;;;;;;;;;;;;;7.19;100.00;100053.44;5011827;28;20456;-85
2022/10/28 12:18:38;;;;;;;;;;;;;;;7.20;100.00;100062.22;5011232;28;19913;-87
2022/10/28 12:21:13;;;;;;;;;;;;;;;7.14;100.00;100052.69;5011531;28;19933;-89
2022/10/28 12:23:40;;;;;;;;;;;;;;;7.18;100.00;100054.34;5011817;28;20015;-86
2022/10/28 12:26:07;;;;;;;;;;;;;;;7.16;100.00;100050.88;5011733;28;19975;-87
2022/10/28 12:28:36;;;;;;;;;;;;;;;7.09;100.00;100060.69;5010534;28;19921;-86
2022/10/28 12:31:01;;;;;;;;;;;;;;;7.12;100.00;100053.63;5011884;28;20012;-86
2022/10/28 12:33:27;;;;;;;;;;;;;;;7.14;100.00;100055.31;5011795;28;20067;-86
2022/10/28 12:36:12;;;;;;;;;;;;;;;7.03;100.00;100063.47;5012037;28;19932;-85
2022/10/28 12:41:14;;;;;;;;;;;;;;;7.03;100.00;100055.56;5061373;23;19929;-87
2022/10/28 12:43:46;;;;;;;;;;;;;;;7.14;100.00;100046.56;5028805;28;19921;-87
2022/10/28 12:46:22;;;;;;;;;;;;;;;7.11;100.00;100044.00;5030806;28;19944;-86
2022/10/28 12:48:50;;;;;;;;;;;;;;;7.13;100.00;100056.22;5030154;28;19921;-86
2022/10/28 12:51:22;;;;;;;;;;;;;;;7.16;100.00;100061.41;5034122;28;20376;-86
2022/10/28 12:54:20;;;;;;;;;;;;;;;7.14;100.00;100059.72;5035111;28;19921;-86
2022/10/28 12:56:51;;;;;;;;;;;;;;;7.11;100.00;100055.38;4990902;28;20020;-88
2022/10/28 12:59:16;;;;;;;;;;;;;;;7.13;100.00;100052.72;5033477;28;19960;-89
2022/10/28 13:01:47;;;;;;;;;;;;;;;7.09;100.00;100047.53;5034010;28;19968;-87
2022/10/28 13:04:12;;;;;;;;;;;;;;;7.12;100.00;100046.59;5033950;28;19921;-86
2022/10/28 13:06:37;;;;;;;;;;;;;;;7.08;100.00;100040.53;5034841;28;20036;-88
2022/10/28 13:09:03;;;;;;;;;;;;;;;7.09;100.00;100046.66;5033599;28;19917;-86
2022/10/28 13:11:31;;;;;;;;;;;;;;;7.12;100.00;100046.59;5032236;28;19925;-85
2022/10/28 13:14:02;;;;;;;;;;;;;;;7.16;100.00;100045.59;5032243;28;19947;-86
2022/10/28 13:16:59;;;;;;;;;;;;;;;7.13;100.00;100055.34;5033510;28;19921;-86
2022/10/28 13:19:34;;;;;;;;;;;;;;;7.05;100.00;100059.06;4989397;28;19967;-85
2022/10/28 13:22:05;;;;;;;;;;;;;;;7.13;100.00;100055.34;5033534;28;20277;-86
2022/10/28 13:24:44;;;;;;;;;;;;;;;7.13;100.00;100053.56;5033546;28;19921;-87
2022/10/28 13:27:11;;;;;;;;;;;;;;;7.14;100.00;100054.47;5032645;28;19971;-86
2022/10/28 13:29:37;;;;;;;;;;;;;;;7.14;100.00;100054.47;5031673;28;20032;-86
2022/10/28 13:32:02;;;;;;;;;;;;;;;7.12;100.00;100053.63;5032956;28;20436;-86
2022/10/28 13:34:34;;;;;;;;;;;;;;;7.14;100.00;100057.09;5031186;28;19927;-91
2022/10/28 13:37:08;;;;;;;;;;;;;;;7.17;100.00;100051.75;5033673;28;19932;-86
2022/10/28 13:39:36;;;;;;;;;;;;;;;7.16;100.00;100063.19;5034142;28;19971;-84
2022/10/28 13:42:14;;;;;;;;;;;;;;;7.07;100.00;100051.97;5034050;28;20174;-84
2022/10/28 13:44:49;;;;;;;;;;;;;;;7.09;100.00;100051.94;5031425;28;19925;-86
2022/10/28 13:47:23;;;;;;;;;;;;;;;7.13;100.00;100052.72;5033678;28;19917;-87
2022/10/28 13:49:58;;;;;;;;;;;;;;;7.13;100.00;100052.72;5033535;28;19921;-85
2022/10/28 13:52:23;;;;;;;;;;;;;;;7.04;100.00;100051.19;5033566;28;20354;-86
2022/10/28 13:54:54;;;;;;;;;;;;;;;7.09;100.00;100058.06;5033974;28;20035;-84
2022/10/28 13:57:36;;;;;;;;;;;;;;;7.14;100.00;100057.94;5030900;28;20376;-84
2022/10/28 14:00:05;;;;;;;;;;;;;;;7.10;100.00;100053.69;5030169;28;19917;-86
2022/10/28 14:02:36;;;;;;;;;;;;;;;7.16;100.00;100034.19;5014237;28;19921;-85
2022/10/28 14:05:06;;;;;;;;;;;;;;;7.12;100.00;100037.81;5033580;28;19924;-85
2022/10/28 14:07:33;;;;;;;;;;;;;;;7.15;100.00;100045.63;5032049;28;19967;-86
2022/10/28 14:10:20;;;;;;;;;;;;;;;7.12;100.00;100041.31;5031971;28;19917;-85
2022/10/28 14:12:48;;;;;;;;;;;;;;;7.05;100.00;100037.09;5033601;28;19924;-86
2022/10/28 14:15:22;;;;;;;;;;;;;;;7.04;100.00;100040.66;5029740;28;19925;-85
2022/10/28 14:17:53;;;;;;;;;;;;;;;7.11;100.00;100036.94;5032157;28;19917;-86
2022/10/28 14:20:23;;;;;;;;;;;;;;;7.11;100.00;100046.63;5032740;28;19917;-85
2022/10/28 14:22:49;;;;;;;;;;;;;;;7.12;100.00;100043.09;5032619;28;19979;-86
2022/10/28 14:25:35;;;;;;;;;;;;;;;7.12;100.00;100045.72;5030968;28;21372;-85
2022/10/28 14:28:00;;;;;;;;;;;;;;;7.11;100.00;100044.84;5030910;28;19925;-85
2022/10/28 14:30:26;;;;;;;;;;;;;;;7.14;100.00;100047.41;5030964;28;20342;-86
2022/10/28 14:32:59;;;;;;;;;;;;;;;7.10;100.00;100048.41;5033176;28;19936;-86
2022/10/28 14:35:43;;;;;;;;;;;;;;;7.11;100.00;100057.16;5032505;28;19973;-88
2022/10/28 14:38:15;;;;;;;;;;;;;;;7.15;100.00;100051.78;5029593;28;19940;-85
2022/10/28 14:40:46;;;;;;;;;;;;;;;7.15;100.00;100058.81;5031127;28;19964;-86
2022/10/28 14:43:38;;;;;;;;;;;;;;;7.09;100.00;100059.84;5028172;28;19929;-86
2022/10/28 14:46:06;;;;;;;;;;;;;;;7.13;100.00;100052.72;5027797;28;20391;-85
2022/10/28 14:48:41;;;;;;;;;;;;;;;7.09;100.00;100050.16;5030081;28;20352;-87
2022/10/28 14:51:11;;;;;;;;;;;;;;;7.13;100.00;100045.66;5031372;28;20003;-85
2022/10/28 14:53:39;;;;;;;;;;;;;;;7.09;100.00;100052.78;5031676;28;19948;-84
2022/10/28 14:56:06;;;;;;;;;;;;;;;7.12;100.00;100048.38;5031380;28;20016;-84
2022/10/28 14:58:41;;;;;;;;;;;;;;;7.15;100.00;100053.53;5030697;28;19963;-86
2022/10/28 15:01:19;;;;;;;;;;;;;;;7.17;100.00;100054.38;5032614;28;19921;-85
2022/10/28 15:04:03;;;;;;;;;;;;;;;7.17;100.00;100057.03;5029960;28;20012;-84
2022/10/28 15:06:28;;;;;;;;;;;;;;;7.21;100.00;100066.56;5032540;28;19921;-85
2022/10/28 15:08:54;;;;;;;;;;;;;;;7.20;100.00;100067.50;5032603;28;20000;-85
2022/10/28 15:11:20;;;;;;;;;;;;;;;7.18;100.00;100059.63;5032185;28;19924;-85
2022/10/28 15:13:50;;;;;;;;;;;;;;;7.23;100.00;100067.41;5028311;28;19925;-86
2022/10/28 15:16:20;;;;;;;;;;;;;;;7.19;100.00;100071.00;5032240;28;19951;-86
2022/10/28 15:18:47;;;;;;;;;;;;;;;7.23;100.00;100068.28;5030796;28;20277;-86
2022/10/28 15:21:15;;;;;;;;;;;;;;;7.22;100.00;100066.53;5027508;28;19921;-87
2022/10/28 15:23:40;;;;;;;;;;;;;;;7.14;100.00;100068.50;5029637;28;19928;-85
2022/10/28 15:26:12;;;;;;;;;;;;;;;7.14;100.00;100067.63;5029826;28;19925;-84
2022/10/28 15:28:38;;;;;;;;;;;;;;;7.17;100.00;100070.19;5025715;28;19967;-86
2022/10/28 15:31:04;;;;;;;;;;;;;;;7.11;100.00;100063.28;5030687;28;19921;-85
2022/10/28 15:33:39;;;;;;;;;;;;;;;7.13;100.00;100069.38;5030953;28;19921;-88
2022/10/28 15:36:12;;;;;;;;;;;;;;;7.12;100.00;100080.00;5030201;28;19925;-85
2022/10/28 15:38:39;;;;;;;;;;;;;;;7.11;100.00;100084.38;5030395;28;19947;-86
2022/10/28 15:41:22;;;;;;;;;;;;;;;7.04;100.00;100088.94;5030035;28;19921;-85
2022/10/28 15:43:54;;;;;;;;;;;;;;;7.07;100.00;100090.63;5029622;28;19932;-86
2022/10/28 15:46:23;;;;;;;;;;;;;;;7.12;100.00;100085.25;5030483;28;19921;-87
2022/10/28 15:48:52;;;;;;;;;;;;;;;7.12;100.00;100096.66;5030617;28;19917;-88
2022/10/28 15:51:18;;;;;;;;;;;;;;;7.15;100.00;100093.06;5030106;28;19948;-85
2022/10/28 15:53:44;;;;;;;;;;;;;;;7.13;100.00;100092.25;5030838;28;19936;-89
2022/10/28 15:56:12;;;;;;;;;;;;;;;7.17;100.00;100096.56;5031855;28;19940;-84
2022/10/28 15:58:39;;;;;;;;;;;;;;;7.09;100.00;100100.22;5029984;28;20372;-86
2022/10/28 16:01:27;;;;;;;;;;;;;;;7.04;100.00;100107.38;5031696;28;19917;-88
2022/10/28 16:03:52;;;;;;;;;;;;;;;7.05;100.00;100098.56;4950788;29;19926;-85
2022/10/28 16:06:20;;;;;;;;;;;;;;;7.04;100.00;100110.00;5021792;28;20483;-87
2022/10/28 16:08:45;;;;;;;;;;;;;;;7.07;100.00;100109.09;5032059;28;19921;-86
2022/10/28 16:11:17;;;;;;;;;;;;;;;7.06;100.00;100107.34;5031843;28;19921;-86
2022/10/28 16:13:47;;;;;;;;;;;;;;;7.05;100.00;100111.75;5028932;28;20277;-87
2022/10/28 16:16:14;;;;;;;;;;;;;;;7.02;100.00;100111.81;5030341;28;20360;-86
2022/10/28 16:18:44;;;;;;;;;;;;;;;7.05;100.00;100111.75;5030444;28;20375;-87
2022/10/28 16:21:18;;;;;;;;;;;;;;;7.04;100.00;100115.28;5030441;28;19917;-86
2022/10/28 16:23:45;;;;;;;;;;;;;;;7.15;100.00;100117.66;5030149;28;20364;-86
2022/10/28 16:26:11;;;;;;;;;;;;;;;7.07;100.00;100117.84;5033190;28;19962;-86
2022/10/28 16:28:36;;;;;;;;;;;;;;;8.85;100.00;100119.28;5034409;28;20425;-85
2022/10/28 16:31:11;;;;;;;;;;;;;;;8.00;100.00;100118.16;5034112;28;20031;-86
2022/10/28 16:33:37;;;;;;;;;;;;;;;7.50;100.00;100128.25;5034102;28;19917;-86
2022/10/28 16:39:11;;;;;;;;;;;;;;;7.30;100.00;100131.38;5034334;28;19917;-87
2022/10/28 16:41:39;;;;;;;;;;;;;;;7.21;100.00;100128.06;5035388;28;19924;-88
2022/10/28 16:44:04;;;;;;;;;;;;;;;7.22;100.00;100131.56;5034030;28;20000;-88
2022/10/28 16:46:35;;;;;;;;;;;;;;;7.18;100.00;100137.78;5035208;28;20007;-87
2022/10/28 16:49:01;;;;;;;;;;;;;;;7.17;100.00;100136.09;5034535;28;19921;-87
2022/10/28 16:51:31;;;;;;;;;;;;;;;7.16;100.00;100142.25;5043811;23;20054;-88
2022/10/28 16:53:58;;;;;;;;;;;;;;;7.15;100.00;100140.50;5033759;28;20498;-85
2022/10/28 16:56:23;;;;;;;;;;;;;;;7.21;100.00;100138.63;5034164;28;20368;-87
2022/10/28 16:58:49;;;;;;;;;;;;;;;7.14;100.00;100146.69;5031795;28;19932;-87
2022/10/28 17:01:16;;;;;;;;;;;;;;;7.14;100.00;100151.97;5033413;28;19925;-87
2022/10/28 17:03:41;;;;;;;;;;;;;;;7.15;100.00;100153.69;5034206;28;19928;-85
2022/10/28 17:06:11;;;;;;;;;;;;;;;7.14;100.00;100159.88;5032214;28;20268;-85
2022/10/28 17:08:36;;;;;;;;;;;;;;;7.16;100.00;100158.91;5010322;28;19921;-86
2022/10/28 17:11:03;;;;;;;;;;;;;;;7.16;100.00;100158.06;5011592;28;19925;-90
2022/10/28 17:13:28;;;;;;;;;;;;;;;7.13;100.00;100166.03;5009403;28;20403;-89
2022/10/28 17:15:54;;;;;;;;;;;;;;;7.09;100.00;100158.19;5012758;28;19999;-88
2022/10/28 17:18:28;;;;;;;;;;;;;;;7.13;100.00;100155.50;5012514;28;19962;-91
2022/10/28 17:21:00;;;;;;;;;;;;;;;7.11;100.00;100162.56;5012053;28;20293;-87
2022/10/28 17:23:26;;;;;;;;;;;;;;;7.05;100.00;100166.19;5011933;28;19917;-89
2022/10/28 17:26:20;;;;;;;;;;;;;;;7.12;100.00;100169.59;4996197;28;19917;-90
2022/10/28 17:28:49;;;;;;;;;;;;;;;7.05;100.00;100166.19;4997428;28;19936;-86
2022/10/28 17:31:15;;;;;;;;;;;;;;;7.11;100.00;100167.84;5010632;28;19929;-88
2022/10/28 17:33:40;;;;;;;;;;;;;;;7.09;100.00;100166.09;4995370;28;19917;-87
2022/10/28 17:36:06;;;;;;;;;;;;;;;7.06;100.00;100170.56;5011687;28;19928;-91
2022/10/28 17:38:32;;;;;;;;;;;;;;;7.09;100.00;100171.38;5013094;28;19960;-86
2022/10/28 17:40:57;;;;;;;;;;;;;;;7.04;100.00;100165.34;5032789;28;19964;-88
2022/10/28 17:43:22;;;;;;;;;;;;;;;7.11;100.00;100166.06;5030857;28;19925;-89
2022/10/28 17:45:48;;;;;;;;;;;;;;;7.13;100.00;100160.75;5031234;28;20376;-89
2022/10/28 17:48:13;;;;;;;;;;;;;;;7.09;100.00;100168.72;5033416;28;19917;-90
2022/10/28 17:50:38;;;;;;;;;;;;;;;7.06;100.00;100176.72;5032038;28;19927;-89
2022/10/28 17:53:04;;;;;;;;;;;;;;;7.05;100.00;100184.66;5032068;28;19921;-88
2022/10/28 17:55:31;;;;;;;;;;;;;;;7.08;100.00;100177.56;5025963;28;20012;-87
2022/10/28 17:57:56;;;;;;;;;;;;;;;7.09;100.00;100179.28;5032029;28;19925;-88
2022/10/28 18:00:21;;;;;;;;;;;;;;;7.09;100.00;100181.91;5022819;28;20297;-89
2022/10/28 18:02:54;;;;;;;;;;;;;;;7.07;100.00;100188.13;5032079;28;19924;-87
2022/10/28 18:05:19;;;;;;;;;;;;;;;7.07;100.00;100189.00;5032075;28;20291;-86
2022/10/28 18:07:45;;;;;;;;;;;;;;;7.04;100.00;100190.84;5032325;28;20365;-88
2022/10/28 18:10:10;;;;;;;;;;;;;;;7.11;100.00;100195.06;5032736;28;19921;-89
2022/10/28 18:12:35;;;;;;;;;;;;;;;7.05;100.00;100196.06;5032472;28;20414;-88
2022/10/28 18:15:00;;;;;;;;;;;;;;;7.06;100.00;100192.50;5031369;28;19975;-89
2022/10/28 18:17:26;;;;;;;;;;;;;;;6.99;100.00;100193.56;5034352;28;20288;-90
2022/10/28 18:19:51;;;;;;;;;;;;;;;7.03;100.00;100197.00;5033561;28;19924;-89
2022/10/28 18:22:16;;;;;;;;;;;;;;;7.05;100.00;100201.34;5033488;28;20404;-88
2022/10/28 18:24:42;;;;;;;;;;;;;;;7.01;100.00;100204.06;5033256;28;19948;-90
2022/10/28 18:27:07;;;;;;;;;;;;;;;7.02;100.00;100211.94;5032673;28;19921;-89
2022/10/28 18:29:32;;;;;;;;;;;;;;;7.06;100.00;100210.97;5029096;28;19932;-89
2022/10/28 18:31:59;;;;;;;;;;;;;;;7.06;100.00;100212.75;5031992;28;19925;-87
2022/10/28 18:34:24;;;;;;;;;;;;;;;7.04;100.00;100215.41;5031980;28;19924;-88
2022/10/28 18:36:50;;;;;;;;;;;;;;;7.05;100.00;100222.44;5032987;28;20011;-89
2022/10/28 18:39:15;;;;;;;;;;;;;;;7.07;100.00;100225.03;5032385;28;19921;-88
2022/10/28 18:41:41;;;;;;;;;;;;;;;7.06;100.00;100221.50;5032648;28;20356;-89
2022/10/28 18:44:11;;;;;;;;;;;;;;;7.07;100.00;100211.84;5030512;28;20392;-92
2022/10/28 18:46:37;;;;;;;;;;;;;;;7.08;100.00;100211.81;5032754;28;19921;-89
2022/10/28 18:49:04;;;;;;;;;;;;;;;7.07;100.00;100203.94;5030550;28;19952;-89
2022/10/28 18:51:30;;;;;;;;;;;;;;;7.06;100.00;100203.06;5028348;28;20292;-88
2022/10/28 18:53:58;;;;;;;;;;;;;;;7.02;100.00;100201.41;5028099;28;19920;-87
2022/10/28 18:56:24;;;;;;;;;;;;;;;7.01;100.00;100210.19;5029725;28;19955;-88
2022/10/28 18:58:51;;;;;;;;;;;;;;;7.06;100.00;100213.59;5028146;28;20352;-89
2022/10/28 19:01:21;;;;;;;;;;;;;;;7.02;100.00;100217.22;5030942;28;19921;-91
2022/10/28 19:06:49;;;;;;;;;;;;;;;7.04;100.00;100218.03;4951766;29;19922;-89
2022/10/28 19:09:14;;;;;;;;;;;;;;;7.05;100.00;100213.63;5021744;28;20060;-87
2022/10/28 19:11:39;;;;;;;;;;;;;;;7.02;100.00;100214.59;5030856;28;20024;-90
2022/10/28 19:14:05;;;;;;;;;;;;;;;7.02;100.00;100221.59;5031472;28;19922;-88
2022/10/28 19:16:32;;;;;;;;;;;;;;;6.98;100.00;100226.06;5030254;28;19917;-89
2022/10/28 19:18:57;;;;;;;;;;;;;;;7.01;100.00;100228.66;5032437;28;19921;-89
2022/10/28 19:21:23;;;;;;;;;;;;;;;7.03;100.00;100228.63;5031578;28;19925;-89
2022/10/28 19:23:49;;;;;;;;;;;;;;;7.04;100.00;100225.94;5031469;28;19925;-87
2022/10/28 19:26:14;;;;;;;;;;;;;;;7.01;100.00;100217.25;5031739;28;19918;-86
2022/10/28 19:28:41;;;;;;;;;;;;;;;7.06;100.00;100218.00;5027268;28;19925;-87
2022/10/28 19:31:07;;;;;;;;;;;;;;;7.04;100.00;100207.50;5032291;28;19932;-88
2022/10/28 19:33:33;;;;;;;;;;;;;;;7.02;100.00;100209.31;5030263;28;19921;-88
2022/10/28 19:36:01;;;;;;;;;;;;;;;7.02;100.00;100204.03;5029787;28;19921;-90
2022/10/28 19:38:32;;;;;;;;;;;;;;;7.05;100.00;100214.53;5030590;28;20331;-89
2022/10/28 19:41:05;;;;;;;;;;;;;;;7.01;100.00;100227.78;5028930;28;19925;-90
2022/10/28 19:43:30;;;;;;;;;;;;;;;7.04;100.00;100228.59;5029978;28;19928;-90
2022/10/28 19:46:06;;;;;;;;;;;;;;;7.04;100.00;100225.09;5030618;28;19925;-86